sensor_id;sensor_type;location;lat;lon;timestamp;pressure;altitude;pressure_sealevel;temperature;humidity
83185;BME280;73080;48.768;11.528;2024-02-28T00:01:52;96878.75;;;4.26;83.18
83185;BME280;73080;48.768;11.528;2024-02-28T00:04:18;96884.53;;;4.28;83.17
83185;BME280;73080;48.768;11.528;2024-02-28T00:06:44;96882.13;;;4.27;83.78
83185;BME280;73080;48.768;11.528;2024-02-28T00:09:11;96879.75;;;4.25;83.75
83185;BME280;73080;48.768;11.528;2024-02-28T00:11:43;96880.13;;;4.22;83.54
83185;BME280;73080;48.768;11.528;2024-02-28T00:14:08;96877.75;;;4.21;84.01
83185;BME280;73080;48.768;11.528;2024-02-28T00:16:40;96874.38;;;4.13;83.91
83185;BME280;73080;48.768;11.528;2024-02-28T00:19:05;96876.59;;;4.10;84.72
83185;BME280;73080;48.768;11.528;2024-02-28T00:21:31;96883.75;;;4.14;84.48
83185;BME280;73080;48.768;11.528;2024-02-28T00:23:56;96889.56;;;4.17;83.86
83185;BME280;73080;48.768;11.528;2024-02-28T00:26:25;96887.16;;;4.08;83.26
83185;BME280;73080;48.768;11.528;2024-02-28T00:28:50;96890.97;;;4.06;83.05
83185;BME280;73080;48.768;11.528;2024-02-28T00:31:16;96889.81;;;3.95;82.28
83185;BME280;73080;48.768;11.528;2024-02-28T00:33:41;96896.38;;;3.98;82.89
83185;BME280;73080;48.768;11.528;2024-02-28T00:36:06;96903.19;;;3.85;82.78
83185;BME280;73080;48.768;11.528;2024-02-28T00:38:32;96898.78;;;3.73;83.51
83185;BME280;73080;48.768;11.528;2024-02-28T00:41:00;96894.22;;;3.75;83.88
83185;BME280;73080;48.768;11.528;2024-02-28T00:43:25;96897.22;;;3.72;84.00
83185;BME280;73080;48.768;11.528;2024-02-28T00:45:50;96898.22;;;3.71;84.70
83185;BME280;73080;48.768;11.528;2024-02-28T00:48:19;96907.59;;;3.78;84.89
83185;BME280;73080;48.768;11.528;2024-02-28T00:50:44;96908.59;;;3.77;84.93
83185;BME280;73080;48.768;11.528;2024-02-28T00:53:10;96903.81;;;3.81;84.65
83185;BME280;73080;48.768;11.528;2024-02-28T00:55:35;96901.22;;;3.74;84.24
83185;BME280;73080;48.768;11.528;2024-02-28T00:58:04;96899.00;;;3.71;84.53
83185;BME280;73080;48.768;11.528;2024-02-28T01:00:29;96898.22;;;3.71;84.42
83185;BME280;73080;48.768;11.528;2024-02-28T01:02:54;96905.19;;;3.70;84.29
83185;BME280;73080;48.768;11.528;2024-02-28T01:05:26;96906.19;;;3.69;84.57
83185;BME280;73080;48.768;11.528;2024-02-28T01:07:51;96909.59;;;3.63;84.88
83185;BME280;73080;48.768;11.528;2024-02-28T01:10:17;96910.97;;;3.66;84.53
83185;BME280;73080;48.768;11.528;2024-02-28T01:12:42;96903.59;;;3.56;85.17
83185;BME280;73080;48.768;11.528;2024-02-28T01:15:08;96909.59;;;3.50;84.81
83185;BME280;73080;48.768;11.528;2024-02-28T01:17:33;96910.38;;;3.57;85.21
83185;BME280;73080;48.768;11.528;2024-02-28T01:19:58;96922.19;;;3.53;85.30
83185;BME280;73080;48.768;11.528;2024-02-28T01:22:24;96919.97;;;3.50;85.34
83185;BME280;73080;48.768;11.528;2024-02-28T01:24:49;96915.56;;;3.44;85.64
83185;BME280;73080;48.768;11.528;2024-02-28T01:27:15;96924.94;;;3.45;86.32
83185;BME280;73080;48.768;11.528;2024-02-28T01:29:40;96918.97;;;3.44;86.31
83185;BME280;73080;48.768;11.528;2024-02-28T01:32:05;96928.53;;;3.44;86.24
83185;BME280;73080;48.768;11.528;2024-02-28T01:34:31;96938.94;;;3.50;86.49
83185;BME280;73080;48.768;11.528;2024-02-28T01:36:56;96933.75;;;3.57;86.77
83185;BME280;73080;48.768;11.528;2024-02-28T01:39:22;96943.34;;;3.63;86.25
83185;BME280;73080;48.768;11.528;2024-02-28T01:41:54;96951.34;;;3.75;85.56
83185;BME280;73080;48.768;11.528;2024-02-28T01:44:23;96955.13;;;3.79;85.30
83185;BME280;73080;48.768;11.528;2024-02-28T01:46:51;96962.72;;;3.87;85.33
83185;BME280;73080;48.768;11.528;2024-02-28T01:49:16;96965.94;;;3.96;85.63
83185;BME280;73080;48.768;11.528;2024-02-28T01:51:46;96968.91;;;3.99;84.74
83185;BME280;73080;48.768;11.528;2024-02-28T01:54:12;96986.88;;;4.07;85.36
83185;BME280;73080;48.768;11.528;2024-02-28T01:56:38;96988.50;;;4.02;85.05
83185;BME280;73080;48.768;11.528;2024-02-28T01:59:04;96990.69;;;4.05;85.44
83185;BME280;73080;48.768;11.528;2024-02-28T02:01:30;96999.09;;;4.13;85.09
83185;BME280;73080;48.768;11.528;2024-02-28T02:03:55;96999.09;;;4.07;84.57
83185;BME280;73080;48.768;11.528;2024-02-28T02:06:26;97002.47;;;4.14;85.11
83185;BME280;73080;48.768;11.528;2024-02-28T02:08:52;96993.88;;;4.20;84.40
83185;BME280;73080;48.768;11.528;2024-02-28T02:11:17;96998.69;;;4.23;84.24
83185;BME280;73080;48.768;11.528;2024-02-28T02:13:53;96998.88;;;4.28;84.71
83185;BME280;73080;48.768;11.528;2024-02-28T02:16:19;97010.47;;;4.32;84.83
83185;BME280;73080;48.768;11.528;2024-02-28T02:18:45;96999.88;;;4.40;84.80
83185;BME280;73080;48.768;11.528;2024-02-28T02:21:18;97006.66;;;4.48;83.62
83185;BME280;73080;48.768;11.528;2024-02-28T02:23:44;97009.25;;;4.48;83.23
83185;BME280;73080;48.768;11.528;2024-02-28T02:26:09;97008.44;;;4.48;83.63
83185;BME280;73080;48.768;11.528;2024-02-28T02:28:35;97008.88;;;4.38;84.22
83185;BME280;73080;48.768;11.528;2024-02-28T02:31:00;97020.28;;;4.37;84.35
83185;BME280;73080;48.768;11.528;2024-02-28T02:33:28;97023.84;;;4.36;84.17
83185;BME280;73080;48.768;11.528;2024-02-28T02:35:53;97022.88;;;4.37;83.95
83185;BME280;73080;48.768;11.528;2024-02-28T02:38:19;97019.44;;;4.43;83.80
83185;BME280;73080;48.768;11.528;2024-02-28T02:40:51;97016.84;;;4.43;83.34
83185;BME280;73080;48.768;11.528;2024-02-28T02:43:16;97015.66;;;4.52;83.71
83185;BME280;73080;48.768;11.528;2024-02-28T02:45:42;97016.25;;;4.54;83.69
83185;BME280;73080;48.768;11.528;2024-02-28T02:48:07;97019.63;;;4.55;83.69
83185;BME280;73080;48.768;11.528;2024-02-28T02:50:32;97022.03;;;4.50;83.63
83185;BME280;73080;48.768;11.528;2024-02-28T02:52:58;97014.44;;;4.48;84.46
83185;BME280;73080;48.768;11.528;2024-02-28T02:55:23;97018.63;;;4.56;84.53
83185;BME280;73080;48.768;11.528;2024-02-28T02:57:48;97015.81;;;4.64;84.07
83185;BME280;73080;48.768;11.528;2024-02-28T03:00:16;97019.63;;;4.68;83.87
83185;BME280;73080;48.768;11.528;2024-02-28T03:02:48;97014.78;;;4.72;83.07
83185;BME280;73080;48.768;11.528;2024-02-28T03:05:13;97018.38;;;4.77;83.52
83185;BME280;73080;48.768;11.528;2024-02-28T03:07:38;97018.78;;;4.81;83.51
83185;BME280;73080;48.768;11.528;2024-02-28T03:10:07;97022.78;;;4.77;83.21
83185;BME280;73080;48.768;11.528;2024-02-28T03:12:32;97028.78;;;4.84;83.31
83185;BME280;73080;48.768;11.528;2024-02-28T03:14:57;97021.38;;;4.87;83.04
83185;BME280;73080;48.768;11.528;2024-02-28T03:17:23;97019.56;;;4.88;83.26
83185;BME280;73080;48.768;11.528;2024-02-28T03:19:48;97025.34;;;4.96;82.82
83185;BME280;73080;48.768;11.528;2024-02-28T03:22:13;97020.56;;;4.93;82.54
83185;BME280;73080;48.768;11.528;2024-02-28T03:24:39;97034.34;;;5.01;82.89
83185;BME280;73080;48.768;11.528;2024-02-28T03:27:04;97027.16;;;4.96;83.07
83185;BME280;73080;48.768;11.528;2024-02-28T03:29:30;97036.34;;;4.99;82.71
83185;BME280;73080;48.768;11.528;2024-02-28T03:31:55;97032.53;;;5.01;82.67
83185;BME280;73080;48.768;11.528;2024-02-28T03:34:24;97031.56;;;4.95;83.24
83185;BME280;73080;48.768;11.528;2024-02-28T03:36:52;97033.16;;;4.90;83.35
83185;BME280;73080;48.768;11.528;2024-02-28T03:39:17;97030.19;;;4.86;83.36
83185;BME280;73080;48.768;11.528;2024-02-28T03:41:42;97028.38;;;4.93;83.16
83185;BME280;73080;48.768;11.528;2024-02-28T03:44:10;97031.56;;;4.89;83.04
83185;BME280;73080;48.768;11.528;2024-02-28T03:46:38;97034.56;;;4.86;82.78
83185;BME280;73080;48.768;11.528;2024-02-28T03:49:04;97039.75;;;4.86;83.42
83185;BME280;73080;48.768;11.528;2024-02-28T03:51:29;97044.38;;;4.90;83.23
83185;BME280;73080;48.768;11.528;2024-02-28T03:53:54;97049.97;;;4.94;82.81
83185;BME280;73080;48.768;11.528;2024-02-28T03:56:23;97047.38;;;4.94;83.01
83185;BME280;73080;48.768;11.528;2024-02-28T03:58:48;97044.94;;;4.92;83.05
83185;BME280;73080;48.768;11.528;2024-02-28T04:01:17;97047.75;;;4.91;83.41
83185;BME280;73080;48.768;11.528;2024-02-28T04:03:48;97043.56;;;4.90;83.17
83185;BME280;73080;48.768;11.528;2024-02-28T04:06:13;97048.56;;;4.91;83.60
83185;BME280;73080;48.768;11.528;2024-02-28T04:08:41;97041.19;;;4.88;83.49
83185;BME280;73080;48.768;11.528;2024-02-28T04:11:06;97038.59;;;4.82;83.20
83185;BME280;73080;48.768;11.528;2024-02-28T04:13:31;97038.00;;;4.86;83.60
83185;BME280;73080;48.768;11.528;2024-02-28T04:16:01;97045.19;;;4.84;83.90
83185;BME280;73080;48.768;11.528;2024-02-28T04:18:27;97047.56;;;4.86;84.11
83185;BME280;73080;48.768;11.528;2024-02-28T04:20:52;97052.38;;;4.89;83.46
83185;BME280;73080;48.768;11.528;2024-02-28T04:23:17;97058.59;;;4.88;83.57
83185;BME280;73080;48.768;11.528;2024-02-28T04:25:43;97058.97;;;4.91;83.78
83185;BME280;73080;48.768;11.528;2024-02-28T04:28:11;97060.38;;;4.94;83.96
83185;BME280;73080;48.768;11.528;2024-02-28T04:30:36;97064.97;;;4.92;83.71
83185;BME280;73080;48.768;11.528;2024-02-28T04:33:01;97062.97;;;4.94;83.38
83185;BME280;73080;48.768;11.528;2024-02-28T04:35:30;97069.78;;;5.02;83.16
83185;BME280;73080;48.768;11.528;2024-02-28T04:37:58;97066.53;;;5.00;83.50
83185;BME280;73080;48.768;11.528;2024-02-28T04:40:23;97067.16;;;5.02;82.95
83185;BME280;73080;48.768;11.528;2024-02-28T04:42:48;97067.97;;;5.02;83.39
83185;BME280;73080;48.768;11.528;2024-02-28T04:45:13;97072.56;;;5.00;82.78
83185;BME280;73080;48.768;11.528;2024-02-28T04:47:39;97075.97;;;5.01;82.94
83185;BME280;73080;48.768;11.528;2024-02-28T04:50:05;97086.19;;;5.02;83.15
83185;BME280;73080;48.768;11.528;2024-02-28T04:52:33;97080.19;;;5.02;83.42
83185;BME280;73080;48.768;11.528;2024-02-28T04:54:59;97089.16;;;4.99;83.12
83185;BME280;73080;48.768;11.528;2024-02-28T04:57:24;97096.41;;;4.90;83.09
83185;BME280;73080;48.768;11.528;2024-02-28T04:59:50;97095.19;;;4.93;83.21
83185;BME280;73080;48.768;11.528;2024-02-28T05:02:15;97099.19;;;4.95;83.28
83185;BME280;73080;48.768;11.528;2024-02-28T05:04:40;97092.41;;;4.94;83.48
83185;BME280;73080;48.768;11.528;2024-02-28T05:07:06;97093.56;;;4.99;83.55
83185;BME280;73080;48.768;11.528;2024-02-28T05:09:31;97101.38;;;4.92;82.74
83185;BME280;73080;48.768;11.528;2024-02-28T05:11:56;97112.00;;;4.97;83.02
83185;BME280;73080;48.768;11.528;2024-02-28T05:14:22;97120.38;;;4.99;83.13
83185;BME280;73080;48.768;11.528;2024-02-28T05:16:47;97121.59;;;4.96;83.15
83185;BME280;73080;48.768;11.528;2024-02-28T05:19:22;97122.03;;;4.87;83.19
83185;BME280;73080;48.768;11.528;2024-02-28T05:21:47;97120.41;;;4.92;82.95
83185;BME280;73080;48.768;11.528;2024-02-28T05:24:12;97126.81;;;4.90;83.19
83185;BME280;73080;48.768;11.528;2024-02-28T05:26:38;97134.41;;;4.98;83.00
83185;BME280;73080;48.768;11.528;2024-02-28T05:29:04;97130.41;;;5.09;82.66
83185;BME280;73080;48.768;11.528;2024-02-28T05:31:30;97146.03;;;5.02;81.82
83185;BME280;73080;48.768;11.528;2024-02-28T05:33:57;97146.00;;;5.15;81.78
83185;BME280;73080;48.768;11.528;2024-02-28T05:36:23;97151.34;;;5.34;81.06
83185;BME280;73080;48.768;11.528;2024-02-28T05:38:49;97151.72;;;5.50;80.27
83185;BME280;73080;48.768;11.528;2024-02-28T05:41:18;97147.50;;;5.49;80.03
83185;BME280;73080;48.768;11.528;2024-02-28T05:43:43;97147.09;;;5.53;79.78
83185;BME280;73080;48.768;11.528;2024-02-28T05:46:08;97155.69;;;5.60;79.66
83185;BME280;73080;48.768;11.528;2024-02-28T05:48:34;97162.88;;;5.64;79.05
83185;BME280;73080;48.768;11.528;2024-02-28T05:51:00;97169.94;;;5.57;79.73
83185;BME280;73080;48.768;11.528;2024-02-28T05:53:26;97172.19;;;5.34;80.74
83185;BME280;73080;48.768;11.528;2024-02-28T05:55:51;97178.81;;;5.23;81.74
83185;BME280;73080;48.768;11.528;2024-02-28T05:58:17;97184.63;;;5.18;81.44
83185;BME280;73080;48.768;11.528;2024-02-28T06:00:42;97190.84;;;5.17;81.71
83185;BME280;73080;48.768;11.528;2024-02-28T06:03:07;97203.66;;;5.12;81.85
83185;BME280;73080;48.768;11.528;2024-02-28T06:05:33;97203.25;;;5.15;81.71
83185;BME280;73080;48.768;11.528;2024-02-28T06:07:58;97214.66;;;5.14;82.33
83185;BME280;73080;48.768;11.528;2024-02-28T06:10:23;97214.47;;;5.16;82.01
83185;BME280;73080;48.768;11.528;2024-02-28T06:12:52;97220.06;;;5.06;82.00
83185;BME280;73080;48.768;11.528;2024-02-28T06:15:17;97228.28;;;5.03;81.66
83185;BME280;73080;48.768;11.528;2024-02-28T06:17:42;97219.88;;;5.08;81.93
83185;BME280;73080;48.768;11.528;2024-02-28T06:20:07;97220.28;;;5.05;82.52
83185;BME280;73080;48.768;11.528;2024-02-28T06:22:33;97228.88;;;5.12;81.15
83185;BME280;73080;48.768;11.528;2024-02-28T06:24:58;97234.09;;;5.12;81.97
83185;BME280;73080;48.768;11.528;2024-02-28T06:27:23;97247.69;;;5.14;81.71
83185;BME280;73080;48.768;11.528;2024-02-28T06:29:49;97249.50;;;5.13;81.98
83185;BME280;73080;48.768;11.528;2024-02-28T06:32:14;97252.88;;;5.20;81.45
83185;BME280;73080;48.768;11.528;2024-02-28T06:34:42;97256.69;;;5.18;81.72
83185;BME280;73080;48.768;11.528;2024-02-28T06:37:07;97260.53;;;5.22;82.11
83185;BME280;73080;48.768;11.528;2024-02-28T06:39:33;97270.72;;;5.17;81.73
83185;BME280;73080;48.768;11.528;2024-02-28T06:41:58;97277.72;;;5.16;81.94
83185;BME280;73080;48.768;11.528;2024-02-28T06:44:24;97281.34;;;5.22;82.06
83185;BME280;73080;48.768;11.528;2024-02-28T06:46:49;97279.53;;;5.16;81.77
83185;BME280;73080;48.768;11.528;2024-02-28T06:49:14;97276.72;;;5.17;81.89
83185;BME280;73080;48.768;11.528;2024-02-28T06:51:40;97278.75;;;5.15;82.27
83185;BME280;73080;48.768;11.528;2024-02-28T06:54:05;97283.31;;;5.13;82.14
83185;BME280;73080;48.768;11.528;2024-02-28T06:56:31;97280.91;;;5.05;81.62
83185;BME280;73080;48.768;11.528;2024-02-28T06:58:56;97284.72;;;5.03;81.82
83185;BME280;73080;48.768;11.528;2024-02-28T07:01:22;97282.34;;;5.01;82.08
83185;BME280;73080;48.768;11.528;2024-02-28T07:03:47;97286.13;;;5.05;81.79
83185;BME280;73080;48.768;11.528;2024-02-28T07:06:15;97286.94;;;5.12;82.21
83185;BME280;73080;48.768;11.528;2024-02-28T07:08:41;97287.94;;;5.11;81.47
83185;BME280;73080;48.768;11.528;2024-02-28T07:11:13;97289.53;;;5.12;82.18
83185;BME280;73080;48.768;11.528;2024-02-28T07:13:39;97285.13;;;5.13;81.67
83185;BME280;73080;48.768;11.528;2024-02-28T07:16:04;97290.94;;;5.15;81.10
83185;BME280;73080;48.768;11.528;2024-02-28T07:18:30;97288.75;;;5.25;80.77
83185;BME280;73080;48.768;11.528;2024-02-28T07:20:55;97286.53;;;5.15;81.38
83185;BME280;73080;48.768;11.528;2024-02-28T07:23:20;97287.94;;;5.38;81.60
83185;BME280;73080;48.768;11.528;2024-02-28T07:25:46;97283.94;;;5.29;81.15
83185;BME280;73080;48.768;11.528;2024-02-28T07:28:11;97285.94;;;5.40;80.96
83185;BME280;73080;48.768;11.528;2024-02-28T07:30:37;97292.34;;;5.17;80.95
83185;BME280;73080;48.768;11.528;2024-02-28T07:33:02;97290.75;;;5.16;80.60
83185;BME280;73080;48.768;11.528;2024-02-28T07:35:29;97285.94;;;5.27;81.26
83185;BME280;73080;48.768;11.528;2024-02-28T07:37:55;97290.94;;;5.28;81.43
83185;BME280;73080;48.768;11.528;2024-02-28T07:40:20;97285.75;;;5.21;80.88
83185;BME280;73080;48.768;11.528;2024-02-28T07:42:45;97294.34;;;5.42;82.33
83185;BME280;73080;48.768;11.528;2024-02-28T07:45:11;97299.16;;;5.38;80.96
83185;BME280;73080;48.768;11.528;2024-02-28T07:47:37;97291.13;;;5.40;80.34
83185;BME280;73080;48.768;11.528;2024-02-28T07:50:02;97290.72;;;5.49;80.77
83185;BME280;73080;48.768;11.528;2024-02-28T07:52:27;97294.75;;;5.45;81.22
83185;BME280;73080;48.768;11.528;2024-02-28T07:54:53;97292.72;;;5.54;80.93
83185;BME280;73080;48.768;11.528;2024-02-28T07:57:18;97297.50;;;5.64;80.60
83185;BME280;73080;48.768;11.528;2024-02-28T07:59:43;97300.09;;;5.70;80.71
83185;BME280;73080;48.768;11.528;2024-02-28T08:02:09;97305.50;;;5.75;80.02
83185;BME280;73080;48.768;11.528;2024-02-28T08:04:34;97307.72;;;5.78;80.01
83185;BME280;73080;48.768;11.528;2024-02-28T08:07:00;97309.53;;;5.78;79.81
83185;BME280;73080;48.768;11.528;2024-02-28T08:09:28;97311.75;;;5.68;79.69
83185;BME280;73080;48.768;11.528;2024-02-28T08:12:00;97307.72;;;5.78;79.51
83185;BME280;73080;48.768;11.528;2024-02-28T08:14:27;97314.75;;;5.78;79.52
83185;BME280;73080;48.768;11.528;2024-02-28T08:16:56;97313.91;;;5.77;79.74
83185;BME280;73080;48.768;11.528;2024-02-28T08:19:24;97312.09;;;5.85;79.61
83185;BME280;73080;48.768;11.528;2024-02-28T08:21:50;97314.53;;;5.86;79.11
83185;BME280;73080;48.768;11.528;2024-02-28T08:24:15;97312.53;;;5.82;79.49
83185;BME280;73080;48.768;11.528;2024-02-28T08:26:40;97310.50;;;5.90;78.63
83185;BME280;73080;48.768;11.528;2024-02-28T08:29:05;97306.72;;;5.93;78.81
83185;BME280;73080;48.768;11.528;2024-02-28T08:31:31;97315.72;;;5.97;78.58
83185;BME280;73080;48.768;11.528;2024-02-28T08:33:56;97309.28;;;6.06;78.57
83185;BME280;73080;48.768;11.528;2024-02-28T08:36:21;97318.91;;;5.99;78.79
83185;BME280;73080;48.768;11.528;2024-02-28T08:38:47;97325.94;;;5.98;78.59
83185;BME280;73080;48.768;11.528;2024-02-28T08:41:12;97330.13;;;6.06;78.79
83185;BME280;73080;48.768;11.528;2024-02-28T08:43:38;97329.94;;;6.14;78.56
83185;BME280;73080;48.768;11.528;2024-02-28T08:46:04;97333.75;;;6.05;78.92
83185;BME280;73080;48.768;11.528;2024-02-28T08:48:29;97333.97;;;5.97;78.72
83185;BME280;73080;48.768;11.528;2024-02-28T08:50:54;97338.78;;;6.07;78.66
83185;BME280;73080;48.768;11.528;2024-02-28T08:53:20;97341.19;;;6.01;78.58
83185;BME280;73080;48.768;11.528;2024-02-28T08:55:48;97340.53;;;6.13;78.45
83185;BME280;73080;48.768;11.528;2024-02-28T08:58:13;97342.94;;;6.21;78.76
83185;BME280;73080;48.768;11.528;2024-02-28T09:00:38;97339.25;;;6.42;77.81
83185;BME280;73080;48.768;11.528;2024-02-28T09:03:04;97349.00;;;6.59;76.41
83185;BME280;73080;48.768;11.528;2024-02-28T09:05:30;97357.31;;;6.43;76.71
83185;BME280;73080;48.768;11.528;2024-02-28T09:07:55;97351.06;;;6.51;76.85
83185;BME280;73080;48.768;11.528;2024-02-28T09:10:21;97358.50;;;6.41;77.94
83185;BME280;73080;48.768;11.528;2024-02-28T09:12:47;97355.06;;;6.53;76.32
83185;BME280;73080;48.768;11.528;2024-02-28T09:15:12;97361.69;;;6.56;77.04
83185;BME280;73080;48.768;11.528;2024-02-28T09:17:37;97362.28;;;6.58;76.76
83185;BME280;73080;48.768;11.528;2024-02-28T09:20:03;97366.69;;;6.57;76.48
83185;BME280;73080;48.768;11.528;2024-02-28T09:22:28;97366.63;;;6.71;76.09
83185;BME280;73080;48.768;11.528;2024-02-28T09:24:53;97363.78;;;6.79;75.51
83185;BME280;73080;48.768;11.528;2024-02-28T09:27:19;97362.19;;;6.78;75.15
83185;BME280;73080;48.768;11.528;2024-02-28T09:29:44;97371.97;;;6.82;75.00
83185;BME280;73080;48.768;11.528;2024-02-28T09:32:09;97366.44;;;6.66;75.01
83185;BME280;73080;48.768;11.528;2024-02-28T09:34:35;97361.41;;;6.71;75.63
83185;BME280;73080;48.768;11.528;2024-02-28T09:37:00;97363.97;;;6.84;75.17
83185;BME280;73080;48.768;11.528;2024-02-28T09:39:26;97372.69;;;7.03;74.16
83185;BME280;73080;48.768;11.528;2024-02-28T09:41:51;97368.19;;;7.16;74.36
83185;BME280;73080;48.768;11.528;2024-02-28T09:44:17;97372.81;;;7.14;74.25
83185;BME280;73080;48.768;11.528;2024-02-28T09:46:43;97375.72;;;7.00;74.06
83185;BME280;73080;48.768;11.528;2024-02-28T09:49:09;97387.00;;;6.94;74.41
83185;BME280;73080;48.768;11.528;2024-02-28T09:51:35;97367.94;;;6.93;74.27
83185;BME280;73080;48.768;11.528;2024-02-28T09:54:04;97370.69;;;7.05;73.49
83185;BME280;73080;48.768;11.528;2024-02-28T09:56:33;97373.19;;;7.18;73.29
83185;BME280;73080;48.768;11.528;2024-02-28T09:58:59;97379.44;;;7.49;72.28
83185;BME280;73080;48.768;11.528;2024-02-28T10:01:28;97366.00;;;7.13;71.04
83185;BME280;73080;48.768;11.528;2024-02-28T10:03:54;97370.69;;;7.05;73.18
83185;BME280;73080;48.768;11.528;2024-02-28T10:06:25;97378.69;;;7.03;71.72
83185;BME280;73080;48.768;11.528;2024-02-28T10:08:50;97378.72;;;6.97;71.76
83185;BME280;73080;48.768;11.528;2024-02-28T10:13:44;97384.41;;;6.87;71.91
83185;BME280;73080;48.768;11.528;2024-02-28T10:16:10;97387.63;;;6.82;73.19
83185;BME280;73080;48.768;11.528;2024-02-28T10:18:35;97386.44;;;6.85;73.89
83185;BME280;73080;48.768;11.528;2024-02-28T10:21:00;97387.25;;;6.85;72.68
83185;BME280;73080;48.768;11.528;2024-02-28T10:23:26;97388.41;;;6.89;72.71
83185;BME280;73080;48.768;11.528;2024-02-28T10:25:51;97393.06;;;6.81;72.38
83185;BME280;73080;48.768;11.528;2024-02-28T10:28:18;97400.16;;;6.67;73.52
83185;BME280;73080;48.768;11.528;2024-02-28T10:30:44;97390.53;;;6.61;73.42
83185;BME280;73080;48.768;11.528;2024-02-28T10:33:13;97404.13;;;6.76;74.18
83185;BME280;73080;48.768;11.528;2024-02-28T10:35:40;97405.16;;;6.69;73.87
83185;BME280;73080;48.768;11.528;2024-02-28T10:38:12;97406.78;;;6.70;73.68
83185;BME280;73080;48.768;11.528;2024-02-28T10:40:41;97407.75;;;6.75;74.03
83185;BME280;73080;48.768;11.528;2024-02-28T10:43:08;97412.63;;;6.65;74.26
83185;BME280;73080;48.768;11.528;2024-02-28T10:45:36;97410.00;;;6.65;74.71
83185;BME280;73080;48.768;11.528;2024-02-28T10:48:02;97413.19;;;6.67;73.95
83185;BME280;73080;48.768;11.528;2024-02-28T10:50:28;97424.19;;;6.76;73.65
83185;BME280;73080;48.768;11.528;2024-02-28T10:52:55;97418.97;;;6.82;72.65
83185;BME280;73080;48.768;11.528;2024-02-28T10:55:22;97421.81;;;6.74;73.10
83185;BME280;73080;48.768;11.528;2024-02-28T10:57:54;97418.97;;;6.82;72.82
83185;BME280;73080;48.768;11.528;2024-02-28T11:00:23;97426.00;;;6.82;72.96
83185;BME280;73080;48.768;11.528;2024-02-28T11:02:49;97424.84;;;6.71;73.29
83185;BME280;73080;48.768;11.528;2024-02-28T11:05:14;97429.50;;;6.63;74.22
83185;BME280;73080;48.768;11.528;2024-02-28T11:07:51;97432.69;;;6.58;74.77
83185;BME280;73080;48.768;11.528;2024-02-28T11:10:16;97429.91;;;6.53;75.77
83185;BME280;73080;48.768;11.528;2024-02-28T11:12:42;97430.88;;;6.65;73.30
83185;BME280;73080;48.768;11.528;2024-02-28T11:15:16;97431.69;;;6.59;75.76
83185;BME280;73080;48.768;11.528;2024-02-28T11:17:41;97432.72;;;6.51;74.95
83185;BME280;73080;48.768;11.528;2024-02-28T11:20:16;97441.88;;;6.74;75.15
83185;BME280;73080;48.768;11.528;2024-02-28T11:22:41;97444.66;;;6.85;74.25
83185;BME280;73080;48.768;11.528;2024-02-28T11:25:07;97442.59;;;7.01;73.64
83185;BME280;73080;48.768;11.528;2024-02-28T11:27:46;97438.38;;;7.00;72.98
83185;BME280;73080;48.768;11.528;2024-02-28T11:30:13;97442.28;;;6.77;74.45
83185;BME280;73080;48.768;11.528;2024-02-28T11:32:38;97442.47;;;6.69;73.24
83185;BME280;73080;48.768;11.528;2024-02-28T11:35:04;97441.31;;;6.65;73.41
83185;BME280;73080;48.768;11.528;2024-02-28T11:37:29;97444.94;;;6.57;74.49
83185;BME280;73080;48.768;11.528;2024-02-28T11:39:55;97439.31;;;6.60;74.25
83185;BME280;73080;48.768;11.528;2024-02-28T11:42:20;97434.28;;;6.66;74.48
83185;BME280;73080;48.768;11.528;2024-02-28T11:44:53;97448.34;;;6.65;74.65
83185;BME280;73080;48.768;11.528;2024-02-28T11:47:18;97451.16;;;6.63;74.66
83185;BME280;73080;48.768;11.528;2024-02-28T11:49:44;97449.59;;;6.49;74.84
83185;BME280;73080;48.768;11.528;2024-02-28T11:52:09;97452.59;;;6.52;74.82
83185;BME280;73080;48.768;11.528;2024-02-28T11:54:35;97442.13;;;6.59;74.60
83185;BME280;73080;48.768;11.528;2024-02-28T11:57:00;97450.31;;;6.69;74.34
83185;BME280;73080;48.768;11.528;2024-02-28T11:59:29;97440.88;;;6.68;73.42
83185;BME280;73080;48.768;11.528;2024-02-28T12:01:54;97439.28;;;6.74;73.79
83185;BME280;73080;48.768;11.528;2024-02-28T12:04:20;97444.09;;;6.77;73.81
83185;BME280;73080;48.768;11.528;2024-02-28T12:06:48;97451.47;;;6.86;73.77
83185;BME280;73080;48.768;11.528;2024-02-28T12:09:17;97444.41;;;6.94;73.86
83185;BME280;73080;48.768;11.528;2024-02-28T12:11:42;97439.78;;;6.96;73.66
83185;BME280;73080;48.768;11.528;2024-02-28T12:14:08;97442.41;;;6.96;72.50
83185;BME280;73080;48.768;11.528;2024-02-28T12:16:36;97444.22;;;6.88;72.40
83185;BME280;73080;48.768;11.528;2024-02-28T12:19:12;97445.16;;;7.07;71.92
83185;BME280;73080;48.768;11.528;2024-02-28T12:21:38;97437.38;;;7.32;71.34
83185;BME280;73080;48.768;11.528;2024-02-28T12:24:06;97435.13;;;7.04;71.04
83185;BME280;73080;48.768;11.528;2024-02-28T12:26:32;97439.94;;;7.07;71.84
83185;BME280;73080;48.768;11.528;2024-02-28T12:28:58;97444.41;;;6.94;71.87
83185;BME280;73080;48.768;11.528;2024-02-28T12:31:23;97432.25;;;7.19;71.42
83185;BME280;73080;48.768;11.528;2024-02-28T12:33:49;97436.88;;;7.17;72.70
83185;BME280;73080;48.768;11.528;2024-02-28T12:36:14;97436.75;;;7.37;70.33
83185;BME280;73080;48.768;11.528;2024-02-28T12:38:39;97434.88;;;7.19;69.69
83185;BME280;73080;48.768;11.528;2024-02-28T12:41:04;97441.94;;;7.12;68.90
83185;BME280;73080;48.768;11.528;2024-02-28T12:43:30;97436.25;;;7.22;70.50
83185;BME280;73080;48.768;11.528;2024-02-28T12:45:55;97443.09;;;7.16;70.12
83185;BME280;73080;48.768;11.528;2024-02-28T12:48:24;97436.16;;;7.41;70.36
83185;BME280;73080;48.768;11.528;2024-02-28T12:50:49;97442.16;;;7.42;69.59
83185;BME280;73080;48.768;11.528;2024-02-28T12:53:20;97431.31;;;7.38;69.06
83185;BME280;73080;48.768;11.528;2024-02-28T12:55:46;97435.94;;;7.43;70.49
83185;BME280;73080;48.768;11.528;2024-02-28T12:58:11;97437.47;;;7.19;70.16